createdAt,value
2022-09-28T00:02:27.187Z,23.23
2022-09-28T00:04:54.521Z,23.26
2022-09-28T00:07:21.626Z,23.03
2022-09-28T00:09:48.799Z,22.87
2022-09-28T00:12:15.933Z,23.01
2022-09-28T00:14:45.028Z,23.07
2022-09-28T00:17:12.737Z,22.98
2022-09-28T00:19:44.189Z,22.92
2022-09-28T00:22:11.513Z,22.97
2022-09-28T00:24:38.851Z,22.66
2022-09-28T00:27:06.513Z,22.64
2022-09-28T00:29:36.481Z,22.60
2022-09-28T00:32:06.667Z,22.64
2022-09-28T00:34:41.478Z,22.57
2022-09-28T00:37:13.365Z,22.56
2022-09-28T00:39:44.615Z,22.80
2022-09-28T00:42:15.354Z,22.63
2022-09-28T00:44:56.556Z,22.64
2022-09-28T00:47:31.441Z,22.62
2022-09-28T00:50:13.831Z,22.42
2022-09-28T00:52:54.121Z,22.37
2022-09-28T00:55:32.118Z,22.42
2022-09-28T00:58:04.027Z,22.43
2022-09-28T01:00:31.719Z,22.14
2022-09-28T01:03:01.620Z,22.17
2022-09-28T01:05:28.897Z,22.06
2022-09-28T01:07:57.887Z,22.31
2022-09-28T01:10:25.644Z,22.24
2022-09-28T01:12:52.935Z,22.28
2022-09-28T01:15:22.208Z,22.21
2022-09-28T01:18:03.526Z,22.04
2022-09-28T01:20:53.281Z,21.97
2022-09-28T01:23:35.699Z,21.78
2022-09-28T01:26:40.278Z,21.97
2022-09-28T01:29:19.549Z,22.00
2022-09-28T01:31:53.186Z,21.99
2022-09-28T01:34:39.778Z,22.08
2022-09-28T01:37:14.255Z,21.86
2022-09-28T01:39:46.446Z,21.86
2022-09-28T01:42:20.986Z,21.68
2022-09-28T01:44:51.437Z,21.76
2022-09-28T01:47:23.841Z,21.74
2022-09-28T01:50:01.145Z,21.72
2022-09-28T01:52:43.439Z,21.65
2022-09-28T01:55:43.720Z,21.55
2022-09-28T01:58:30.017Z,21.65
2022-09-28T02:01:04.081Z,21.69
2022-09-28T02:03:47.061Z,21.69
2022-09-28T02:06:32.188Z,21.54
2022-09-28T02:09:14.264Z,21.59
2022-09-28T02:11:52.028Z,21.69
2022-09-28T02:14:20.371Z,21.45
2022-09-28T02:16:54.513Z,21.70
2022-09-28T02:19:28.538Z,21.61
2022-09-28T02:22:34.239Z,21.49
2022-09-28T02:25:10.153Z,21.41
2022-09-28T02:28:19.061Z,21.40
2022-09-28T02:30:48.999Z,21.38
2022-09-28T02:33:22.910Z,21.21
2022-09-28T02:35:50.892Z,21.34
2022-09-28T02:38:19.812Z,21.34
2022-09-28T02:41:04.630Z,21.29
2022-09-28T02:43:46.736Z,21.35
2022-09-28T02:46:45.393Z,21.22
2022-09-28T02:49:50.425Z,21.36
2022-09-28T02:52:52.536Z,21.13
2022-09-28T02:56:02.376Z,21.33
2022-09-28T02:58:33.016Z,21.05
2022-09-28T03:01:37.377Z,21.15
2022-09-28T03:04:19.121Z,21.00
2022-09-28T03:06:54.958Z,21.01
2022-09-28T03:09:37.716Z,20.86
2022-09-28T03:12:11.192Z,20.81
2022-09-28T03:14:38.521Z,20.99
2022-09-28T03:17:05.748Z,21.01
2022-09-28T03:19:34.775Z,20.98
2022-09-28T03:22:02.002Z,21.01
2022-09-28T03:24:29.417Z,20.94
2022-09-28T03:26:59.509Z,20.95
2022-09-28T03:29:27.032Z,20.65
2022-09-28T03:32:00.175Z,20.91
2022-09-28T03:34:27.488Z,20.94
2022-09-28T03:36:54.900Z,20.81
2022-09-28T03:39:22.121Z,21.03
2022-09-28T03:41:49.330Z,20.92
2022-09-28T03:44:18.601Z,21.05
2022-09-28T03:46:47.606Z,21.17
2022-09-28T03:49:15.072Z,21.23
2022-09-28T03:51:42.173Z,21.08
2022-09-28T03:54:09.452Z,21.26
2022-09-28T03:56:36.791Z,21.21
2022-09-28T03:59:04.765Z,21.25
2022-09-28T04:01:32.621Z,21.26
2022-09-28T04:04:00.150Z,21.19
2022-09-28T04:06:28.251Z,21.04
2022-09-28T04:08:55.586Z,21.13
2022-09-28T04:11:24.281Z,21.24
2022-09-28T04:13:51.483Z,21.38
2022-09-28T04:16:19.838Z,21.42
2022-09-28T04:19:05.837Z,21.28
2022-09-28T04:21:33.053Z,21.41
2022-09-28T04:24:10.569Z,21.39
2022-09-28T04:26:41.003Z,21.39
2022-09-28T04:29:17.495Z,21.29
2022-09-28T04:31:55.802Z,21.28
2022-09-28T04:34:37.145Z,21.24
2022-09-28T04:37:05.582Z,20.89
2022-09-28T04:39:32.749Z,20.96
2022-09-28T04:42:00.247Z,21.04
2022-09-28T04:44:31.557Z,21.03
2022-09-28T04:47:05.276Z,20.83
2022-09-28T04:49:38.697Z,20.67
2022-09-28T04:52:17.209Z,20.94
2022-09-28T04:54:56.482Z,20.96
2022-09-28T04:57:25.881Z,20.71
2022-09-28T04:59:53.384Z,20.54
2022-09-28T05:02:21.667Z,20.85
2022-09-28T05:05:08.186Z,20.86
2022-09-28T05:08:07.463Z,20.91
2022-09-28T05:10:35.477Z,20.93
2022-09-28T05:13:03.302Z,20.73
2022-09-28T05:15:33.414Z,20.63
2022-09-28T05:18:02.077Z,20.74
2022-09-28T05:20:42.119Z,20.80
2022-09-28T05:23:13.649Z,20.76
2022-09-28T05:25:43.701Z,20.53
2022-09-28T05:28:29.590Z,20.67
2022-09-28T05:31:15.725Z,20.62
2022-09-28T05:34:08.842Z,20.45
2022-09-28T05:36:37.495Z,20.43
2022-09-28T05:39:08.457Z,20.55
2022-09-28T05:41:38.916Z,20.55
2022-09-28T05:44:06.096Z,20.28
2022-09-28T05:46:35.093Z,20.42
2022-09-28T05:49:02.772Z,20.51
2022-09-28T05:51:30.433Z,20.24
2022-09-28T05:54:01.839Z,20.50
2022-09-28T05:56:35.639Z,20.56
2022-09-28T05:59:06.534Z,20.49
2022-09-28T06:01:34.376Z,20.59
2022-09-28T06:04:03.048Z,20.78
2022-09-28T06:06:35.419Z,20.78
2022-09-28T06:09:05.451Z,20.89
2022-09-28T06:11:37.453Z,20.39
2022-09-28T06:14:17.023Z,20.76
2022-09-28T06:16:45.461Z,20.77
2022-09-28T06:19:13.527Z,20.44
2022-09-28T06:22:06.520Z,20.52
2022-09-28T06:24:41.740Z,20.77
2022-09-28T06:27:09.170Z,20.81
2022-09-28T06:29:37.565Z,20.48
2022-09-28T06:32:04.756Z,20.43
2022-09-28T06:34:32.373Z,20.57
2022-09-28T06:36:59.645Z,20.71
2022-09-28T06:39:28.481Z,20.79
2022-09-28T06:41:55.733Z,20.79
2022-09-28T06:44:23.155Z,20.57
2022-09-28T06:47:19.453Z,21.11
2022-09-28T06:50:12.399Z,21.04
2022-09-28T06:52:58.424Z,21.15
2022-09-28T06:55:50.446Z,21.24
2022-09-28T06:58:20.466Z,21.37
2022-09-28T07:00:50.554Z,21.23
2022-09-28T07:03:20.715Z,21.30
2022-09-28T07:06:05.258Z,21.42
2022-09-28T07:09:22.443Z,21.35
2022-09-28T07:12:10.991Z,21.58
2022-09-28T07:14:56.633Z,21.29
2022-09-28T07:17:26.381Z,21.41
2022-09-28T07:20:01.203Z,21.44
2022-09-28T07:22:41.799Z,21.58
2022-09-28T07:25:14.491Z,21.60
2022-09-28T07:28:00.544Z,21.40
2022-09-28T07:30:46.458Z,21.75
2022-09-28T07:33:33.083Z,21.94
2022-09-28T07:36:23.046Z,22.00
2022-09-28T07:38:52.865Z,22.24
2022-09-28T07:41:32.782Z,22.08
2022-09-28T07:44:06.351Z,22.01
2022-09-28T07:46:37.236Z,21.94
2022-09-28T07:49:20.599Z,21.94
2022-09-28T07:52:08.295Z,22.23
2022-09-28T07:54:40.259Z,22.22
2022-09-28T07:57:33.786Z,22.22
2022-09-28T08:00:21.568Z,22.34
2022-09-28T08:02:48.969Z,22.29
2022-09-28T08:05:21.794Z,22.31
2022-09-28T08:07:49.056Z,22.52
2022-09-28T08:10:19.696Z,22.49
2022-09-28T08:13:27.096Z,22.17
2022-09-28T08:16:35.336Z,22.57
2022-09-28T08:19:13.420Z,22.44
2022-09-28T08:21:46.432Z,22.52
2022-09-28T08:24:16.241Z,22.73
2022-09-28T08:26:45.091Z,22.79
2022-09-28T08:29:17.198Z,22.82
2022-09-28T08:31:50.223Z,23.06
2022-09-28T08:34:37.251Z,22.86
2022-09-28T08:37:27.481Z,23.09
2022-09-28T08:40:21.015Z,23.46
2022-09-28T08:44:01.122Z,24.01
2022-09-28T08:47:31.102Z,24.61
2022-09-28T08:50:28.919Z,24.51
2022-09-28T08:53:15.605Z,24.85
2022-09-28T08:55:55.004Z,24.84
2022-09-28T08:58:28.463Z,24.85
2022-09-28T09:00:55.782Z,24.50
2022-09-28T09:03:33.004Z,25.08
2022-09-28T09:06:55.462Z,25.21
2022-09-28T09:10:28.317Z,25.36
2022-09-28T09:13:03.565Z,25.37
2022-09-28T09:15:30.895Z,25.26
2022-09-28T09:18:15.501Z,25.13
2022-09-28T09:20:59.318Z,24.62
2022-09-28T09:23:49.608Z,25.09
2022-09-28T09:26:23.550Z,24.99
2022-09-28T09:29:13.879Z,24.87
2022-09-28T09:32:17.185Z,24.97
2022-09-28T09:35:05.680Z,25.06
2022-09-28T09:38:20.226Z,24.97
2022-09-28T09:41:27.090Z,24.92
2022-09-28T09:44:39.518Z,25.09
2022-09-28T09:47:43.230Z,25.19
2022-09-28T09:50:46.266Z,25.24
2022-09-28T09:53:38.345Z,25.30
2022-09-28T09:56:19.896Z,25.41
2022-09-28T09:59:28.455Z,25.67
2022-09-28T10:02:14.795Z,26.02
2022-09-28T10:04:55.168Z,25.28
2022-09-28T10:08:03.107Z,26.23
2022-09-28T10:10:35.583Z,26.21
2022-09-28T10:13:11.877Z,26.28
2022-09-28T10:15:44.530Z,26.32
2022-09-28T10:18:36.353Z,26.38
2022-09-28T10:21:14.808Z,26.62
2022-09-28T10:23:55.555Z,26.79
2022-09-28T10:26:28.015Z,26.78
2022-09-28T10:29:16.739Z,26.80
2022-09-28T10:31:48.687Z,26.57
2022-09-28T10:34:32.910Z,26.86
2022-09-28T10:37:11.555Z,27.44
2022-09-28T10:39:59.382Z,27.41
2022-09-28T10:42:35.235Z,27.44
2022-09-28T10:45:24.874Z,26.90
2022-09-28T10:47:52.285Z,26.91
2022-09-28T10:50:27.875Z,27.13
2022-09-28T10:53:21.743Z,26.99
2022-09-28T10:56:33.131Z,27.01
2022-09-28T10:59:30.505Z,27.10
2022-09-28T11:02:33.602Z,27.30
2022-09-28T11:05:28.068Z,27.04
2022-09-28T11:08:01.116Z,27.77
2022-09-28T11:10:36.259Z,28.02
2022-09-28T11:13:11.421Z,28.51
2022-09-28T11:15:44.458Z,28.28
2022-09-28T11:18:31.699Z,27.58
2022-09-28T11:21:24.513Z,27.81
2022-09-28T11:24:19.715Z,27.89
2022-09-28T11:26:56.946Z,27.98
2022-09-28T11:29:38.805Z,28.02
2022-09-28T11:32:30.755Z,28.31
2022-09-28T11:35:45.629Z,28.12
2022-09-28T11:38:31.795Z,28.39
2022-09-28T11:41:33.459Z,29.03
2022-09-28T11:44:19.479Z,29.65
2022-09-28T11:47:21.564Z,30.24
2022-09-28T11:50:06.598Z,29.92
2022-09-28T11:52:41.198Z,29.94
2022-09-28T11:55:36.511Z,29.97
2022-09-28T11:58:15.007Z,30.14
2022-09-28T12:01:23.482Z,29.87
2022-09-28T12:04:22.486Z,30.57
2022-09-28T12:07:03.292Z,30.45
2022-09-28T12:09:45.971Z,30.71
2022-09-28T12:12:32.922Z,31.34
2022-09-28T12:15:13.183Z,31.47
2022-09-28T12:17:47.413Z,31.49
2022-09-28T12:20:28.342Z,31.37
2022-09-28T12:23:15.128Z,31.75
2022-09-28T12:25:47.873Z,31.60
2022-09-28T12:28:27.765Z,31.73
2022-09-28T12:31:06.844Z,31.72
2022-09-28T12:33:36.860Z,31.46
2022-09-28T12:36:31.991Z,30.94
2022-09-28T12:39:23.951Z,30.96
2022-09-28T12:42:19.804Z,31.09
2022-09-28T12:45:17.716Z,31.30
2022-09-28T12:48:17.735Z,31.57
2022-09-28T12:50:58.812Z,31.74
2022-09-28T12:53:57.274Z,31.95
2022-09-28T12:56:40.897Z,31.55
2022-09-28T12:59:26.882Z,31.14
2022-09-28T13:02:31.385Z,30.77
2022-09-28T13:05:10.639Z,30.33
2022-09-28T13:08:14.512Z,30.46
2022-09-28T13:11:07.984Z,30.71
2022-09-28T13:14:06.715Z,30.11
2022-09-28T13:17:00.880Z,30.78
2022-09-28T13:19:54.929Z,31.44
2022-09-28T13:22:44.518Z,31.48
2022-09-28T13:25:19.158Z,31.49
2022-09-28T13:28:06.492Z,31.76
2022-09-28T13:30:38.975Z,32.46
2022-09-28T13:33:10.506Z,32.39
2022-09-28T13:35:43.807Z,31.14
2022-09-28T13:38:17.714Z,32.14
2022-09-28T13:41:10.335Z,31.97
2022-09-28T13:44:01.107Z,32.27
2022-09-28T13:47:05.642Z,32.30
2022-09-28T13:49:42.611Z,32.07
2022-09-28T13:52:13.277Z,32.16
2022-09-28T13:54:53.443Z,32.43
2022-09-28T13:57:53.303Z,32.84
2022-09-28T14:00:37.630Z,32.55
2022-09-28T14:03:26.709Z,32.60
2022-09-28T14:06:06.322Z,32.77
2022-09-28T14:09:14.768Z,31.99
2022-09-28T14:11:59.618Z,31.52
2022-09-28T14:14:45.754Z,31.92
2022-09-28T14:17:22.479Z,31.40
2022-09-28T14:19:58.631Z,30.96
2022-09-28T14:22:39.898Z,29.69
2022-09-28T14:25:10.248Z,30.62
2022-09-28T14:28:19.493Z,30.71
2022-09-28T14:30:51.671Z,30.16
2022-09-28T14:33:22.502Z,29.55
2022-09-28T14:36:02.443Z,30.08
2022-09-28T14:39:08.796Z,29.75
2022-09-28T14:41:40.880Z,29.70
2022-09-28T14:44:13.878Z,29.40
2022-09-28T14:46:46.551Z,29.86
2022-09-28T14:49:19.936Z,29.35
2022-09-28T14:51:59.136Z,29.66
2022-09-28T14:54:54.255Z,29.68
2022-09-28T14:57:29.728Z,29.91
2022-09-28T15:00:08.170Z,29.69
2022-09-28T15:02:39.177Z,29.93
2022-09-28T15:05:06.587Z,29.66
2022-09-28T15:07:49.917Z,29.87
2022-09-28T15:10:41.020Z,30.20
2022-09-28T15:13:21.055Z,30.11
2022-09-28T15:15:52.480Z,30.26
2022-09-28T15:18:19.686Z,29.93
2022-09-28T15:20:49.477Z,29.67
2022-09-28T15:23:37.820Z,29.99
2022-09-28T15:26:13.539Z,29.60
2022-09-28T15:28:45.343Z,29.82
2022-09-28T15:31:19.897Z,29.75
2022-09-28T15:34:14.455Z,29.90
2022-09-28T15:36:49.674Z,29.85
2022-09-28T15:39:28.082Z,29.84
2022-09-28T15:41:59.145Z,29.28
2022-09-28T15:44:33.653Z,29.45
2022-09-28T15:47:17.244Z,29.54
2022-09-28T15:49:44.625Z,29.55
2022-09-28T15:52:28.587Z,29.29
2022-09-28T15:54:56.381Z,29.54
2022-09-28T15:57:37.529Z,29.55
2022-09-28T16:00:23.401Z,29.51
2022-09-28T16:03:06.163Z,29.22
2022-09-28T16:05:59.854Z,29.06
2022-09-28T16:08:39.225Z,29.17
2022-09-28T16:11:19.890Z,29.28
2022-09-28T16:14:01.912Z,29.16
2022-09-28T16:16:50.840Z,28.13
2022-09-28T16:19:25.892Z,28.59
2022-09-28T16:21:56.058Z,29.11
2022-09-28T16:24:32.947Z,29.16
2022-09-28T16:27:16.789Z,28.90
2022-09-28T16:29:45.383Z,28.54
2022-09-28T16:32:30.654Z,28.52
2022-09-28T16:35:12.834Z,28.34
2022-09-28T16:37:43.072Z,28.56
2022-09-28T16:40:11.357Z,28.73
2022-09-28T16:42:44.406Z,28.62
2022-09-28T16:45:23.684Z,28.91
2022-09-28T16:47:53.613Z,28.48
2022-09-28T16:50:21.852Z,28.60
2022-09-28T16:53:21.780Z,28.43
2022-09-28T16:55:50.067Z,28.25
2022-09-28T16:58:17.335Z,28.75
2022-09-28T17:00:46.056Z,28.88
2022-09-28T17:03:16.489Z,28.63
2022-09-28T17:05:44.573Z,28.67
2022-09-28T17:08:18.586Z,28.84
2022-09-28T17:11:16.907Z,28.76
2022-09-28T17:13:46.529Z,28.39
2022-09-28T17:16:18.151Z,28.73
2022-09-28T17:18:46.708Z,28.86
2022-09-28T17:21:16.955Z,28.60
2022-09-28T17:23:45.026Z,28.66
2022-09-28T17:26:30.011Z,28.55
2022-09-28T17:29:02.076Z,28.34
2022-09-28T17:31:30.855Z,28.40
2022-09-28T17:33:58.958Z,28.20
2022-09-28T17:36:27.303Z,28.01
2022-09-28T17:38:56.893Z,27.96
2022-09-28T17:41:24.245Z,28.07
2022-09-28T17:43:51.614Z,28.20
2022-09-28T17:46:27.627Z,28.07
2022-09-28T17:48:57.786Z,28.08
2022-09-28T17:51:25.920Z,28.06
2022-09-28T17:53:56.405Z,27.96
2022-09-28T17:56:32.098Z,27.59
2022-09-28T17:59:03.348Z,27.87
2022-09-28T18:01:34.798Z,27.74
2022-09-28T18:04:08.349Z,27.81
2022-09-28T18:06:37.470Z,27.74
2022-09-28T18:09:12.172Z,27.69
2022-09-28T18:11:44.849Z,27.35
2022-09-28T18:14:12.440Z,27.48
2022-09-28T18:16:39.657Z,27.63
2022-09-28T18:19:08.204Z,27.62
2022-09-28T18:31:53.029Z,27.32
2022-09-28T19:01:34.979Z,27.01
2022-09-28T19:04:19.265Z,26.62
2022-09-28T19:06:56.522Z,26.73
2022-09-28T19:09:29.237Z,26.56
2022-09-28T19:12:05.974Z,26.87
2022-09-28T19:14:39.697Z,26.87
2022-09-28T19:17:13.166Z,26.91
2022-09-28T19:19:43.805Z,26.83
2022-09-28T19:22:19.403Z,26.83
2022-09-28T19:24:54.242Z,26.80
2022-09-28T19:27:22.616Z,26.23
2022-09-28T19:29:56.126Z,26.55
2022-09-28T19:32:34.966Z,26.80
2022-09-28T19:35:11.072Z,26.70
2022-09-28T19:37:40.226Z,26.90
2022-09-28T19:40:16.922Z,26.91
2022-09-28T19:42:46.531Z,27.01
2022-09-28T19:45:22.162Z,27.08
2022-09-28T19:47:50.403Z,27.09
2022-09-28T19:50:20.559Z,26.95
2022-09-28T19:52:47.924Z,27.07
2022-09-28T19:55:26.145Z,27.08
2022-09-28T19:57:59.116Z,26.99
2022-09-28T20:00:26.820Z,26.95
2022-09-28T20:02:54.562Z,26.77
2022-09-28T20:05:22.218Z,26.85
2022-09-28T20:07:49.461Z,26.82
2022-09-28T20:10:17.298Z,26.93
2022-09-28T20:12:44.796Z,26.91
2022-09-28T20:15:12.198Z,26.93
2022-09-28T20:17:42.514Z,26.64
2022-09-28T20:20:10.581Z,26.80
2022-09-28T20:22:38.572Z,26.87
2022-09-28T20:25:06.531Z,26.84
2022-09-28T20:27:46.725Z,26.80
2022-09-28T20:30:16.220Z,26.74
2022-09-28T20:32:49.663Z,26.70
2022-09-28T20:35:32.237Z,26.68
2022-09-28T20:38:08.517Z,26.71
2022-09-28T20:40:42.918Z,26.69
2022-09-28T20:43:20.161Z,26.66
2022-09-28T20:45:47.448Z,26.62
2022-09-28T20:48:19.902Z,26.59
2022-09-28T20:50:59.956Z,26.59
2022-09-28T20:53:35.393Z,26.52
2022-09-28T20:56:14.536Z,26.54
2022-09-28T20:58:43.203Z,26.48
2022-09-28T21:01:33.897Z,26.42
2022-09-28T21:04:11.892Z,26.32
2022-09-28T21:09:49.189Z,26.24
2022-09-28T21:12:26.358Z,26.15
2022-09-28T21:15:02.339Z,26.03
2022-09-28T21:18:01.078Z,26.00
2022-09-28T21:20:51.141Z,25.98
2022-09-28T21:23:25.036Z,25.87
2022-09-28T21:26:30.591Z,25.87
2022-09-28T21:29:22.784Z,25.80
2022-09-28T21:31:53.057Z,25.80
2022-09-28T21:34:21.473Z,25.80
2022-09-28T21:36:54.214Z,25.70
2022-09-28T21:39:29.764Z,25.60
2022-09-28T21:42:00.095Z,25.60
2022-09-28T21:44:39.217Z,25.61
2022-09-28T21:47:14.104Z,25.54
2022-09-28T21:49:47.430Z,25.39
2022-09-28T21:52:16.351Z,25.53
2022-09-28T21:54:45.864Z,25.42
2022-09-28T21:57:16.346Z,25.54
2022-09-28T21:59:45.980Z,25.58
2022-09-28T22:02:16.600Z,25.53
2022-09-28T22:04:47.758Z,25.46
2022-09-28T22:07:15.402Z,25.25
2022-09-28T22:09:50.429Z,25.30
2022-09-28T22:12:20.560Z,25.30
2022-09-28T22:14:48.124Z,25.29
2022-09-28T22:17:18.970Z,25.18
2022-09-28T22:19:46.626Z,25.13
2022-09-28T22:22:13.890Z,25.18
2022-09-28T22:24:41.423Z,25.00
2022-09-28T22:27:15.874Z,25.16
2022-09-28T22:29:47.728Z,25.14
2022-09-28T22:32:19.271Z,25.11
2022-09-28T22:34:46.643Z,25.12
2022-09-28T22:37:16.748Z,25.14
2022-09-28T22:39:48.615Z,25.03
2022-09-28T22:42:16.684Z,24.85
2022-09-28T22:44:43.916Z,25.07
2022-09-28T22:47:11.294Z,25.07
2022-09-28T22:49:38.766Z,25.03
2022-09-28T22:52:06.071Z,25.03
2022-09-28T22:54:33.625Z,25.07
2022-09-28T22:57:00.829Z,25.08
